sensor_id;sensor_type;location;lat;lon;timestamp;temperature;humidity
28532;DHT22;15738;44.860;10.066;2023-06-14T00:00:23;20.10;99.90
28532;DHT22;15738;44.860;10.066;2023-06-14T00:03:08;20.10;99.90
28532;DHT22;15738;44.860;10.066;2023-06-14T00:05:55;20.10;99.90
28532;DHT22;15738;44.860;10.066;2023-06-14T00:08:41;20.10;99.90
28532;DHT22;15738;44.860;10.066;2023-06-14T00:11:27;20.10;99.90
28532;DHT22;15738;44.860;10.066;2023-06-14T00:14:12;20.20;99.90
28532;DHT22;15738;44.860;10.066;2023-06-14T00:16:58;20.20;99.90
28532;DHT22;15738;44.860;10.066;2023-06-14T00:19:44;20.20;99.90
28532;DHT22;15738;44.860;10.066;2023-06-14T00:22:30;20.20;99.90
28532;DHT22;15738;44.860;10.066;2023-06-14T00:25:16;20.20;99.90
28532;DHT22;15738;44.860;10.066;2023-06-14T00:28:13;20.10;99.90
28532;DHT22;15738;44.860;10.066;2023-06-14T00:31:01;20.10;99.90
28532;DHT22;15738;44.860;10.066;2023-06-14T00:33:47;20.00;99.90
28532;DHT22;15738;44.860;10.066;2023-06-14T00:36:33;20.00;99.90
28532;DHT22;15738;44.860;10.066;2023-06-14T00:39:18;19.90;99.90
28532;DHT22;15738;44.860;10.066;2023-06-14T00:42:04;19.80;99.90
28532;DHT22;15738;44.860;10.066;2023-06-14T00:44:51;19.80;99.90
28532;DHT22;15738;44.860;10.066;2023-06-14T00:47:36;19.80;99.90
28532;DHT22;15738;44.860;10.066;2023-06-14T00:50:23;19.80;99.90
28532;DHT22;15738;44.860;10.066;2023-06-14T00:53:09;19.80;99.90
28532;DHT22;15738;44.860;10.066;2023-06-14T00:55:55;19.80;99.90
28532;DHT22;15738;44.860;10.066;2023-06-14T00:58:41;19.80;99.90
28532;DHT22;15738;44.860;10.066;2023-06-14T01:01:28;19.80;99.90
28532;DHT22;15738;44.860;10.066;2023-06-14T01:04:14;19.80;99.90
28532;DHT22;15738;44.860;10.066;2023-06-14T01:07:02;19.80;99.90
28532;DHT22;15738;44.860;10.066;2023-06-14T01:15:26;19.70;99.90
28532;DHT22;15738;44.860;10.066;2023-06-14T01:18:13;19.70;99.90
28532;DHT22;15738;44.860;10.066;2023-06-14T01:21:05;19.70;99.90
28532;DHT22;15738;44.860;10.066;2023-06-14T01:23:51;19.70;99.90
28532;DHT22;15738;44.860;10.066;2023-06-14T01:26:38;19.60;99.90
28532;DHT22;15738;44.860;10.066;2023-06-14T01:29:31;19.60;99.90
28532;DHT22;15738;44.860;10.066;2023-06-14T01:32:23;19.60;99.90
28532;DHT22;15738;44.860;10.066;2023-06-14T01:35:09;19.60;99.90
28532;DHT22;15738;44.860;10.066;2023-06-14T01:37:55;16.60;99.90
28532;DHT22;15738;44.860;10.066;2023-06-14T01:40:42;19.50;99.90
28532;DHT22;15738;44.860;10.066;2023-06-14T01:43:29;19.40;99.90
28532;DHT22;15738;44.860;10.066;2023-06-14T01:46:16;19.50;99.90
28532;DHT22;15738;44.860;10.066;2023-06-14T01:49:02;19.40;99.90
28532;DHT22;15738;44.860;10.066;2023-06-14T01:51:48;19.40;99.90
28532;DHT22;15738;44.860;10.066;2023-06-14T01:54:34;19.40;99.90
28532;DHT22;15738;44.860;10.066;2023-06-14T01:57:20;19.30;99.90
28532;DHT22;15738;44.860;10.066;2023-06-14T02:00:06;19.30;99.90
28532;DHT22;15738;44.860;10.066;2023-06-14T02:02:56;19.30;99.90
28532;DHT22;15738;44.860;10.066;2023-06-14T02:05:44;19.30;99.90
28532;DHT22;15738;44.860;10.066;2023-06-14T02:08:30;19.30;99.90
28532;DHT22;15738;44.860;10.066;2023-06-14T02:11:18;19.30;99.90
28532;DHT22;15738;44.860;10.066;2023-06-14T02:14:04;19.20;99.90
28532;DHT22;15738;44.860;10.066;2023-06-14T02:16:50;19.20;99.90
28532;DHT22;15738;44.860;10.066;2023-06-14T02:19:36;19.20;99.90
28532;DHT22;15738;44.860;10.066;2023-06-14T02:22:22;19.10;99.90
28532;DHT22;15738;44.860;10.066;2023-06-14T02:25:07;19.10;99.90
28532;DHT22;15738;44.860;10.066;2023-06-14T02:27:54;19.20;99.90
28532;DHT22;15738;44.860;10.066;2023-06-14T02:30:40;19.10;99.90
28532;DHT22;15738;44.860;10.066;2023-06-14T02:33:26;19.20;99.90
28532;DHT22;15738;44.860;10.066;2023-06-14T02:36:12;19.20;99.90
28532;DHT22;15738;44.860;10.066;2023-06-14T02:38:57;19.20;99.90
28532;DHT22;15738;44.860;10.066;2023-06-14T02:41:43;19.20;99.90
28532;DHT22;15738;44.860;10.066;2023-06-14T02:44:29;19.20;99.90
28532;DHT22;15738;44.860;10.066;2023-06-14T02:47:17;19.10;99.90
28532;DHT22;15738;44.860;10.066;2023-06-14T02:50:03;19.10;99.90
28532;DHT22;15738;44.860;10.066;2023-06-14T02:52:49;19.10;99.90
28532;DHT22;15738;44.860;10.066;2023-06-14T02:55:35;19.00;99.90
28532;DHT22;15738;44.860;10.066;2023-06-14T02:58:26;19.00;99.90
28532;DHT22;15738;44.860;10.066;2023-06-14T03:01:12;19.10;99.90
28532;DHT22;15738;44.860;10.066;2023-06-14T03:03:59;19.00;99.90
28532;DHT22;15738;44.860;10.066;2023-06-14T03:06:46;19.00;99.90
28532;DHT22;15738;44.860;10.066;2023-06-14T03:09:38;19.00;99.90
28532;DHT22;15738;44.860;10.066;2023-06-14T03:12:26;19.00;99.90
28532;DHT22;15738;44.860;10.066;2023-06-14T03:15:12;19.10;99.90
28532;DHT22;15738;44.860;10.066;2023-06-14T03:18:03;19.00;99.90
28532;DHT22;15738;44.860;10.066;2023-06-14T03:20:49;19.00;99.90
28532;DHT22;15738;44.860;10.066;2023-06-14T03:23:36;19.00;99.90
28532;DHT22;15738;44.860;10.066;2023-06-14T03:26:22;19.10;99.90
28532;DHT22;15738;44.860;10.066;2023-06-14T03:29:10;19.00;99.90
28532;DHT22;15738;44.860;10.066;2023-06-14T03:32:00;19.00;99.90
28532;DHT22;15738;44.860;10.066;2023-06-14T03:34:54;19.00;99.90
28532;DHT22;15738;44.860;10.066;2023-06-14T03:37:43;19.00;99.90
28532;DHT22;15738;44.860;10.066;2023-06-14T03:40:29;19.00;99.90
28532;DHT22;15738;44.860;10.066;2023-06-14T03:43:19;18.90;99.90
28532;DHT22;15738;44.860;10.066;2023-06-14T03:46:05;19.00;99.90
28532;DHT22;15738;44.860;10.066;2023-06-14T03:48:52;19.00;99.90
28532;DHT22;15738;44.860;10.066;2023-06-14T03:51:38;19.00;99.90
28532;DHT22;15738;44.860;10.066;2023-06-14T03:54:25;19.00;99.90
28532;DHT22;15738;44.860;10.066;2023-06-14T03:57:15;19.00;99.90
28532;DHT22;15738;44.860;10.066;2023-06-14T04:00:08;19.00;99.90
28532;DHT22;15738;44.860;10.066;2023-06-14T04:02:58;19.00;99.90
28532;DHT22;15738;44.860;10.066;2023-06-14T04:05:44;19.00;99.90
28532;DHT22;15738;44.860;10.066;2023-06-14T04:08:36;19.00;99.90
28532;DHT22;15738;44.860;10.066;2023-06-14T04:11:25;19.00;99.90
28532;DHT22;15738;44.860;10.066;2023-06-14T04:14:12;19.10;99.90
28532;DHT22;15738;44.860;10.066;2023-06-14T04:16:57;19.10;99.90
28532;DHT22;15738;44.860;10.066;2023-06-14T04:19:43;19.10;99.90
28532;DHT22;15738;44.860;10.066;2023-06-14T04:22:29;19.20;99.90
28532;DHT22;15738;44.860;10.066;2023-06-14T04:25:17;19.20;99.90
28532;DHT22;15738;44.860;10.066;2023-06-14T04:28:09;19.20;99.90
28532;DHT22;15738;44.860;10.066;2023-06-14T04:30:57;19.40;99.90
28532;DHT22;15738;44.860;10.066;2023-06-14T04:33:49;19.50;99.90
28532;DHT22;15738;44.860;10.066;2023-06-14T04:36:39;19.60;99.90
28532;DHT22;15738;44.860;10.066;2023-06-14T04:39:27;19.60;99.90
28532;DHT22;15738;44.860;10.066;2023-06-14T04:42:14;19.60;99.90
28532;DHT22;15738;44.860;10.066;2023-06-14T04:45:00;19.70;99.90
28532;DHT22;15738;44.860;10.066;2023-06-14T04:47:47;19.70;99.90
28532;DHT22;15738;44.860;10.066;2023-06-14T04:50:32;19.80;99.90
28532;DHT22;15738;44.860;10.066;2023-06-14T04:53:19;19.80;99.90
28532;DHT22;15738;44.860;10.066;2023-06-14T04:56:08;20.00;99.90
28532;DHT22;15738;44.860;10.066;2023-06-14T04:58:55;20.10;99.90
28532;DHT22;15738;44.860;10.066;2023-06-14T05:01:41;20.10;99.90
28532;DHT22;15738;44.860;10.066;2023-06-14T05:04:27;20.20;99.90
28532;DHT22;15738;44.860;10.066;2023-06-14T05:07:15;20.30;99.90
28532;DHT22;15738;44.860;10.066;2023-06-14T05:10:00;20.30;99.90
28532;DHT22;15738;44.860;10.066;2023-06-14T05:12:47;20.20;99.90
28532;DHT22;15738;44.860;10.066;2023-06-14T05:15:35;20.20;99.90
28532;DHT22;15738;44.860;10.066;2023-06-14T05:18:21;20.30;99.90
28532;DHT22;15738;44.860;10.066;2023-06-14T05:21:10;20.30;99.90
28532;DHT22;15738;44.860;10.066;2023-06-14T05:23:57;20.40;99.90
28532;DHT22;15738;44.860;10.066;2023-06-14T05:26:42;20.30;99.90
28532;DHT22;15738;44.860;10.066;2023-06-14T05:29:28;20.30;99.90
28532;DHT22;15738;44.860;10.066;2023-06-14T05:32:17;20.40;99.90
28532;DHT22;15738;44.860;10.066;2023-06-14T05:35:09;20.30;99.90
28532;DHT22;15738;44.860;10.066;2023-06-14T05:37:55;20.30;99.90
28532;DHT22;15738;44.860;10.066;2023-06-14T05:40:41;20.40;99.90
28532;DHT22;15738;44.860;10.066;2023-06-14T05:43:27;20.30;99.90
28532;DHT22;15738;44.860;10.066;2023-06-14T05:46:12;20.20;99.90
28532;DHT22;15738;44.860;10.066;2023-06-14T05:48:58;20.20;99.90
28532;DHT22;15738;44.860;10.066;2023-06-14T05:51:44;20.30;99.90
28532;DHT22;15738;44.860;10.066;2023-06-14T05:54:30;20.30;99.90
28532;DHT22;15738;44.860;10.066;2023-06-14T05:57:15;20.40;99.90
28532;DHT22;15738;44.860;10.066;2023-06-14T06:00:01;20.30;99.90
28532;DHT22;15738;44.860;10.066;2023-06-14T06:02:56;20.30;99.90
28532;DHT22;15738;44.860;10.066;2023-06-14T06:05:43;20.30;99.90
28532;DHT22;15738;44.860;10.066;2023-06-14T06:08:30;20.30;99.90
28532;DHT22;15738;44.860;10.066;2023-06-14T06:11:16;20.20;99.90
28532;DHT22;15738;44.860;10.066;2023-06-14T06:14:02;20.20;99.90
28532;DHT22;15738;44.860;10.066;2023-06-14T06:16:48;20.10;99.90
28532;DHT22;15738;44.860;10.066;2023-06-14T06:19:33;20.20;99.90
28532;DHT22;15738;44.860;10.066;2023-06-14T06:22:19;20.30;99.90
28532;DHT22;15738;44.860;10.066;2023-06-14T06:25:05;20.20;99.90
28532;DHT22;15738;44.860;10.066;2023-06-14T06:27:52;20.40;99.90
28532;DHT22;15738;44.860;10.066;2023-06-14T06:30:38;20.60;99.90
28532;DHT22;15738;44.860;10.066;2023-06-14T06:33:24;20.60;99.90
28532;DHT22;15738;44.860;10.066;2023-06-14T06:36:11;20.60;99.90
28532;DHT22;15738;44.860;10.066;2023-06-14T06:38:57;20.70;99.90
28532;DHT22;15738;44.860;10.066;2023-06-14T06:41:43;20.80;99.90
28532;DHT22;15738;44.860;10.066;2023-06-14T06:44:29;20.80;99.90
28532;DHT22;15738;44.860;10.066;2023-06-14T06:47:15;20.90;99.90
28532;DHT22;15738;44.860;10.066;2023-06-14T06:50:01;20.80;99.90
28532;DHT22;15738;44.860;10.066;2023-06-14T06:52:48;20.60;99.90
28532;DHT22;15738;44.860;10.066;2023-06-14T06:55:34;20.60;99.90
28532;DHT22;15738;44.860;10.066;2023-06-14T06:58:20;20.60;99.90
28532;DHT22;15738;44.860;10.066;2023-06-14T07:01:08;20.70;99.90
28532;DHT22;15738;44.860;10.066;2023-06-14T07:03:56;20.80;99.90
28532;DHT22;15738;44.860;10.066;2023-06-14T07:06:52;20.80;99.90
28532;DHT22;15738;44.860;10.066;2023-06-14T07:09:38;20.70;99.90
28532;DHT22;15738;44.860;10.066;2023-06-14T07:12:26;20.90;99.90
28532;DHT22;15738;44.860;10.066;2023-06-14T07:15:15;20.90;99.90
28532;DHT22;15738;44.860;10.066;2023-06-14T07:18:02;20.70;99.90
28532;DHT22;15738;44.860;10.066;2023-06-14T07:20:49;20.70;99.90
28532;DHT22;15738;44.860;10.066;2023-06-14T07:23:36;20.90;99.90
28532;DHT22;15738;44.860;10.066;2023-06-14T07:26:22;21.10;99.90
28532;DHT22;15738;44.860;10.066;2023-06-14T07:29:08;21.30;99.90
28532;DHT22;15738;44.860;10.066;2023-06-14T07:31:54;21.30;99.90
28532;DHT22;15738;44.860;10.066;2023-06-14T07:34:41;21.10;99.90
28532;DHT22;15738;44.860;10.066;2023-06-14T07:37:28;21.00;99.90
28532;DHT22;15738;44.860;10.066;2023-06-14T07:40:15;21.00;99.90
28532;DHT22;15738;44.860;10.066;2023-06-14T07:43:00;21.00;99.90
28532;DHT22;15738;44.860;10.066;2023-06-14T07:45:47;20.90;99.90
28532;DHT22;15738;44.860;10.066;2023-06-14T07:48:50;21.10;99.90
28532;DHT22;15738;44.860;10.066;2023-06-14T07:51:36;21.20;99.90
28532;DHT22;15738;44.860;10.066;2023-06-14T07:54:21;21.50;99.90
28532;DHT22;15738;44.860;10.066;2023-06-14T07:57:12;21.50;99.90
28532;DHT22;15738;44.860;10.066;2023-06-14T07:59:57;21.50;99.90
28532;DHT22;15738;44.860;10.066;2023-06-14T08:02:44;21.50;99.90
28532;DHT22;15738;44.860;10.066;2023-06-14T08:05:30;21.50;99.90
28532;DHT22;15738;44.860;10.066;2023-06-14T08:08:16;21.60;99.90
28532;DHT22;15738;44.860;10.066;2023-06-14T08:11:02;21.70;99.90
28532;DHT22;15738;44.860;10.066;2023-06-14T08:13:47;21.40;99.90
28532;DHT22;15738;44.860;10.066;2023-06-14T08:16:34;21.30;99.90
28532;DHT22;15738;44.860;10.066;2023-06-14T08:19:19;21.40;99.90
28532;DHT22;15738;44.860;10.066;2023-06-14T08:22:05;21.30;99.90
28532;DHT22;15738;44.860;10.066;2023-06-14T08:24:51;21.30;99.90
28532;DHT22;15738;44.860;10.066;2023-06-14T08:27:38;21.40;99.90
28532;DHT22;15738;44.860;10.066;2023-06-14T08:30:24;21.40;99.90
28532;DHT22;15738;44.860;10.066;2023-06-14T08:33:10;21.60;99.90
28532;DHT22;15738;44.860;10.066;2023-06-14T08:36:01;21.80;99.90
28532;DHT22;15738;44.860;10.066;2023-06-14T08:38:47;21.90;99.90
28532;DHT22;15738;44.860;10.066;2023-06-14T08:41:33;24.50;99.90
28532;DHT22;15738;44.860;10.066;2023-06-14T08:44:19;21.90;99.90
28532;DHT22;15738;44.860;10.066;2023-06-14T08:47:06;22.10;99.90
28532;DHT22;15738;44.860;10.066;2023-06-14T08:49:52;22.10;99.90
28532;DHT22;15738;44.860;10.066;2023-06-14T08:52:41;22.20;99.90
28532;DHT22;15738;44.860;10.066;2023-06-14T08:55:35;22.30;99.90
28532;DHT22;15738;44.860;10.066;2023-06-14T08:58:28;22.30;99.90
28532;DHT22;15738;44.860;10.066;2023-06-14T09:01:17;22.40;99.90
28532;DHT22;15738;44.860;10.066;2023-06-14T09:04:03;22.40;99.90
28532;DHT22;15738;44.860;10.066;2023-06-14T09:06:51;22.40;99.90
28532;DHT22;15738;44.860;10.066;2023-06-14T09:09:40;22.20;99.90
28532;DHT22;15738;44.860;10.066;2023-06-14T09:12:47;22.10;99.90
28532;DHT22;15738;44.860;10.066;2023-06-14T09:15:34;22.10;99.90
28532;DHT22;15738;44.860;10.066;2023-06-14T09:18:21;22.10;99.90
28532;DHT22;15738;44.860;10.066;2023-06-14T09:21:07;22.00;99.90
28532;DHT22;15738;44.860;10.066;2023-06-14T09:23:54;21.90;99.90
28532;DHT22;15738;44.860;10.066;2023-06-14T09:26:40;21.80;99.90
28532;DHT22;15738;44.860;10.066;2023-06-14T09:29:26;21.80;99.90
28532;DHT22;15738;44.860;10.066;2023-06-14T09:32:13;21.70;99.90
28532;DHT22;15738;44.860;10.066;2023-06-14T09:34:59;21.60;99.90
28532;DHT22;15738;44.860;10.066;2023-06-14T09:37:45;21.40;99.90
28532;DHT22;15738;44.860;10.066;2023-06-14T09:40:33;21.30;99.90
28532;DHT22;15738;44.860;10.066;2023-06-14T09:43:19;21.20;99.90
28532;DHT22;15738;44.860;10.066;2023-06-14T09:46:07;21.00;99.90
28532;DHT22;15738;44.860;10.066;2023-06-14T09:48:54;21.00;99.90
28532;DHT22;15738;44.860;10.066;2023-06-14T09:51:43;21.00;99.90
28532;DHT22;15738;44.860;10.066;2023-06-14T09:54:30;21.00;99.90
28532;DHT22;15738;44.860;10.066;2023-06-14T09:57:21;21.00;99.90
28532;DHT22;15738;44.860;10.066;2023-06-14T10:00:07;21.00;99.90
28532;DHT22;15738;44.860;10.066;2023-06-14T10:02:57;21.10;99.90
28532;DHT22;15738;44.860;10.066;2023-06-14T10:05:46;21.10;99.90
28532;DHT22;15738;44.860;10.066;2023-06-14T10:08:33;21.10;99.90
28532;DHT22;15738;44.860;10.066;2023-06-14T10:11:23;21.20;99.90
28532;DHT22;15738;44.860;10.066;2023-06-14T10:14:08;21.20;99.90
28532;DHT22;15738;44.860;10.066;2023-06-14T10:19:48;21.40;99.90
28532;DHT22;15738;44.860;10.066;2023-06-14T10:22:39;21.50;99.90
28532;DHT22;15738;44.860;10.066;2023-06-14T10:25:29;21.60;99.90
28532;DHT22;15738;44.860;10.066;2023-06-14T10:28:18;21.60;99.90
28532;DHT22;15738;44.860;10.066;2023-06-14T10:31:09;21.60;99.90
28532;DHT22;15738;44.860;10.066;2023-06-14T10:33:56;21.70;99.90
28532;DHT22;15738;44.860;10.066;2023-06-14T10:36:42;21.80;99.90
28532;DHT22;15738;44.860;10.066;2023-06-14T10:39:27;21.90;99.90
28532;DHT22;15738;44.860;10.066;2023-06-14T10:42:14;21.90;99.90
28532;DHT22;15738;44.860;10.066;2023-06-14T10:45:00;21.90;99.90
28532;DHT22;15738;44.860;10.066;2023-06-14T10:47:46;21.90;99.90
28532;DHT22;15738;44.860;10.066;2023-06-14T10:50:34;22.00;99.90
28532;DHT22;15738;44.860;10.066;2023-06-14T10:53:22;22.00;99.90
28532;DHT22;15738;44.860;10.066;2023-06-14T10:56:09;22.10;99.90
28532;DHT22;15738;44.860;10.066;2023-06-14T10:59:09;22.20;99.90
28532;DHT22;15738;44.860;10.066;2023-06-14T11:04:54;22.20;99.90
28532;DHT22;15738;44.860;10.066;2023-06-14T11:10:51;22.40;99.90
28532;DHT22;15738;44.860;10.066;2023-06-14T11:13:41;22.50;99.90
28532;DHT22;15738;44.860;10.066;2023-06-14T11:16:26;22.60;99.90
28532;DHT22;15738;44.860;10.066;2023-06-14T11:19:15;22.90;99.90
28532;DHT22;15738;44.860;10.066;2023-06-14T11:22:02;23.00;99.90
28532;DHT22;15738;44.860;10.066;2023-06-14T11:24:48;23.30;99.90
28532;DHT22;15738;44.860;10.066;2023-06-14T11:27:34;23.50;99.90
28532;DHT22;15738;44.860;10.066;2023-06-14T11:30:20;23.80;99.90
28532;DHT22;15738;44.860;10.066;2023-06-14T11:33:09;24.10;99.90
28532;DHT22;15738;44.860;10.066;2023-06-14T11:35:55;24.20;99.90
28532;DHT22;15738;44.860;10.066;2023-06-14T11:38:41;24.20;99.90
28532;DHT22;15738;44.860;10.066;2023-06-14T11:41:32;24.20;99.90
28532;DHT22;15738;44.860;10.066;2023-06-14T11:44:17;24.40;99.90
28532;DHT22;15738;44.860;10.066;2023-06-14T11:47:03;24.40;99.90
28532;DHT22;15738;44.860;10.066;2023-06-14T11:49:49;24.40;99.90
28532;DHT22;15738;44.860;10.066;2023-06-14T11:52:36;24.40;99.90
28532;DHT22;15738;44.860;10.066;2023-06-14T11:55:22;24.30;99.90
28532;DHT22;15738;44.860;10.066;2023-06-14T11:58:08;24.40;99.90
28532;DHT22;15738;44.860;10.066;2023-06-14T12:00:55;24.30;99.90
28532;DHT22;15738;44.860;10.066;2023-06-14T12:03:47;24.50;99.90
28532;DHT22;15738;44.860;10.066;2023-06-14T12:06:33;24.50;99.90
28532;DHT22;15738;44.860;10.066;2023-06-14T12:09:25;24.60;99.90
28532;DHT22;15738;44.860;10.066;2023-06-14T12:12:12;24.20;99.90
28532;DHT22;15738;44.860;10.066;2023-06-14T12:14:57;24.20;99.90
28532;DHT22;15738;44.860;10.066;2023-06-14T12:17:44;24.40;99.90
28532;DHT22;15738;44.860;10.066;2023-06-14T12:20:30;24.60;99.90
28532;DHT22;15738;44.860;10.066;2023-06-14T12:23:16;24.90;99.90
28532;DHT22;15738;44.860;10.066;2023-06-14T12:26:02;24.80;99.90
28532;DHT22;15738;44.860;10.066;2023-06-14T12:28:51;24.90;99.90
28532;DHT22;15738;44.860;10.066;2023-06-14T12:31:37;25.00;99.90
28532;DHT22;15738;44.860;10.066;2023-06-14T12:34:23;25.00;99.90
28532;DHT22;15738;44.860;10.066;2023-06-14T12:37:09;24.70;99.90
28532;DHT22;15738;44.860;10.066;2023-06-14T12:39:56;24.70;99.90
28532;DHT22;15738;44.860;10.066;2023-06-14T12:42:41;24.80;99.90
28532;DHT22;15738;44.860;10.066;2023-06-14T12:45:30;24.90;99.90
28532;DHT22;15738;44.860;10.066;2023-06-14T12:48:16;25.00;99.90
28532;DHT22;15738;44.860;10.066;2023-06-14T12:51:02;25.00;99.90
28532;DHT22;15738;44.860;10.066;2023-06-14T12:53:47;25.00;99.90
28532;DHT22;15738;44.860;10.066;2023-06-14T12:56:34;25.00;99.90
28532;DHT22;15738;44.860;10.066;2023-06-14T12:59:19;25.10;99.90
28532;DHT22;15738;44.860;10.066;2023-06-14T13:02:12;25.10;99.90
28532;DHT22;15738;44.860;10.066;2023-06-14T13:04:58;24.90;99.90
28532;DHT22;15738;44.860;10.066;2023-06-14T13:07:44;24.80;99.90
28532;DHT22;15738;44.860;10.066;2023-06-14T13:10:30;24.80;99.90
28532;DHT22;15738;44.860;10.066;2023-06-14T13:13:16;24.80;99.90
28532;DHT22;15738;44.860;10.066;2023-06-14T13:16:02;24.80;99.90
28532;DHT22;15738;44.860;10.066;2023-06-14T13:18:48;24.80;99.90
28532;DHT22;15738;44.860;10.066;2023-06-14T13:21:34;24.70;99.90
28532;DHT22;15738;44.860;10.066;2023-06-14T13:24:20;24.70;99.90
28532;DHT22;15738;44.860;10.066;2023-06-14T13:27:07;24.60;99.90
28532;DHT22;15738;44.860;10.066;2023-06-14T13:29:53;24.80;99.90
28532;DHT22;15738;44.860;10.066;2023-06-14T13:32:39;24.70;99.90
28532;DHT22;15738;44.860;10.066;2023-06-14T13:35:24;24.80;99.90
28532;DHT22;15738;44.860;10.066;2023-06-14T13:38:10;24.80;99.90
28532;DHT22;15738;44.860;10.066;2023-06-14T13:40:56;24.80;99.90
28532;DHT22;15738;44.860;10.066;2023-06-14T13:43:43;24.90;99.90
28532;DHT22;15738;44.860;10.066;2023-06-14T13:46:29;24.90;99.90
28532;DHT22;15738;44.860;10.066;2023-06-14T13:49:14;25.00;99.90
28532;DHT22;15738;44.860;10.066;2023-06-14T13:52:00;25.00;99.90
28532;DHT22;15738;44.860;10.066;2023-06-14T13:54:46;25.10;99.90
28532;DHT22;15738;44.860;10.066;2023-06-14T13:57:33;25.20;99.90
28532;DHT22;15738;44.860;10.066;2023-06-14T14:00:19;25.20;99.90
28532;DHT22;15738;44.860;10.066;2023-06-14T14:03:08;25.30;99.90
28532;DHT22;15738;44.860;10.066;2023-06-14T14:05:54;25.30;99.90
28532;DHT22;15738;44.860;10.066;2023-06-14T14:08:41;25.40;99.90
28532;DHT22;15738;44.860;10.066;2023-06-14T14:11:27;25.50;99.90
28532;DHT22;15738;44.860;10.066;2023-06-14T14:14:13;25.40;99.90
28532;DHT22;15738;44.860;10.066;2023-06-14T14:16:59;25.30;99.90
28532;DHT22;15738;44.860;10.066;2023-06-14T14:19:45;25.10;99.90
28532;DHT22;15738;44.860;10.066;2023-06-14T14:22:32;25.10;99.90
28532;DHT22;15738;44.860;10.066;2023-06-14T14:25:17;25.10;99.90
28532;DHT22;15738;44.860;10.066;2023-06-14T14:28:04;25.00;99.90
28532;DHT22;15738;44.860;10.066;2023-06-14T14:30:50;24.90;99.90
28532;DHT22;15738;44.860;10.066;2023-06-14T14:33:35;24.80;99.90
28532;DHT22;15738;44.860;10.066;2023-06-14T14:36:21;24.80;99.90
28532;DHT22;15738;44.860;10.066;2023-06-14T14:39:08;24.80;99.90
28532;DHT22;15738;44.860;10.066;2023-06-14T14:41:53;24.80;99.90
28532;DHT22;15738;44.860;10.066;2023-06-14T14:44:39;24.90;99.90
28532;DHT22;15738;44.860;10.066;2023-06-14T14:47:25;24.90;99.90
28532;DHT22;15738;44.860;10.066;2023-06-14T14:50:11;25.00;99.90
28532;DHT22;15738;44.860;10.066;2023-06-14T14:52:57;25.00;99.90
28532;DHT22;15738;44.860;10.066;2023-06-14T14:55:43;25.00;99.90
28532;DHT22;15738;44.860;10.066;2023-06-14T14:58:29;25.00;99.90
28532;DHT22;15738;44.860;10.066;2023-06-14T15:01:14;25.00;99.90
28532;DHT22;15738;44.860;10.066;2023-06-14T15:04:01;25.00;99.90
28532;DHT22;15738;44.860;10.066;2023-06-14T15:06:47;24.90;99.90
28532;DHT22;15738;44.860;10.066;2023-06-14T15:09:33;24.90;99.90
28532;DHT22;15738;44.860;10.066;2023-06-14T15:12:18;24.90;99.90
28532;DHT22;15738;44.860;10.066;2023-06-14T15:15:05;24.90;99.90
28532;DHT22;15738;44.860;10.066;2023-06-14T15:17:51;24.80;99.90
28532;DHT22;15738;44.860;10.066;2023-06-14T15:20:37;24.80;99.90
28532;DHT22;15738;44.860;10.066;2023-06-14T15:23:23;24.80;99.90
28532;DHT22;15738;44.860;10.066;2023-06-14T15:26:09;24.80;99.90
28532;DHT22;15738;44.860;10.066;2023-06-14T15:28:54;24.70;99.90
28532;DHT22;15738;44.860;10.066;2023-06-14T15:31:40;24.60;99.90
28532;DHT22;15738;44.860;10.066;2023-06-14T15:34:26;24.60;99.90
28532;DHT22;15738;44.860;10.066;2023-06-14T15:37:11;24.60;99.90
28532;DHT22;15738;44.860;10.066;2023-06-14T15:39:58;24.50;99.90
28532;DHT22;15738;44.860;10.066;2023-06-14T15:42:43;24.60;99.90
28532;DHT22;15738;44.860;10.066;2023-06-14T15:45:29;24.60;99.90
28532;DHT22;15738;44.860;10.066;2023-06-14T15:48:15;24.60;99.90
28532;DHT22;15738;44.860;10.066;2023-06-14T15:51:02;24.60;99.90
28532;DHT22;15738;44.860;10.066;2023-06-14T15:53:48;24.50;99.90
28532;DHT22;15738;44.860;10.066;2023-06-14T15:56:33;24.50;99.90
28532;DHT22;15738;44.860;10.066;2023-06-14T15:59:19;24.50;99.90
28532;DHT22;15738;44.860;10.066;2023-06-14T16:02:05;24.50;99.90
28532;DHT22;15738;44.860;10.066;2023-06-14T16:04:51;24.50;99.90
28532;DHT22;15738;44.860;10.066;2023-06-14T16:07:37;24.50;99.90
28532;DHT22;15738;44.860;10.066;2023-06-14T16:10:23;24.60;99.90
28532;DHT22;15738;44.860;10.066;2023-06-14T16:13:09;24.60;99.90
28532;DHT22;15738;44.860;10.066;2023-06-14T16:15:55;24.60;99.90
28532;DHT22;15738;44.860;10.066;2023-06-14T16:18:41;24.60;99.90
28532;DHT22;15738;44.860;10.066;2023-06-14T16:21:27;24.60;99.90
28532;DHT22;15738;44.860;10.066;2023-06-14T16:24:12;24.60;99.90
28532;DHT22;15738;44.860;10.066;2023-06-14T16:27:00;24.60;99.90
28532;DHT22;15738;44.860;10.066;2023-06-14T16:29:46;24.60;99.90
28532;DHT22;15738;44.860;10.066;2023-06-14T16:32:32;24.50;99.90
28532;DHT22;15738;44.860;10.066;2023-06-14T16:35:17;24.50;99.90
28532;DHT22;15738;44.860;10.066;2023-06-14T16:38:03;24.50;99.90
28532;DHT22;15738;44.860;10.066;2023-06-14T16:40:49;24.50;99.90
28532;DHT22;15738;44.860;10.066;2023-06-14T16:43:35;24.50;99.90
28532;DHT22;15738;44.860;10.066;2023-06-14T16:46:30;24.50;99.90
28532;DHT22;15738;44.860;10.066;2023-06-14T16:49:17;24.50;99.90
28532;DHT22;15738;44.860;10.066;2023-06-14T16:52:03;24.50;99.90
28532;DHT22;15738;44.860;10.066;2023-06-14T16:54:48;24.60;99.90
28532;DHT22;15738;44.860;10.066;2023-06-14T16:57:34;24.60;99.90
28532;DHT22;15738;44.860;10.066;2023-06-14T17:00:20;24.50;99.90
28532;DHT22;15738;44.860;10.066;2023-06-14T17:03:06;24.50;99.90
28532;DHT22;15738;44.860;10.066;2023-06-14T17:05:53;24.50;99.90
28532;DHT22;15738;44.860;10.066;2023-06-14T17:08:39;24.60;99.90
28532;DHT22;15738;44.860;10.066;2023-06-14T17:11:25;24.60;99.90
28532;DHT22;15738;44.860;10.066;2023-06-14T17:14:10;24.60;99.90
28532;DHT22;15738;44.860;10.066;2023-06-14T17:16:58;24.60;99.90
28532;DHT22;15738;44.860;10.066;2023-06-14T17:19:43;24.50;99.90
28532;DHT22;15738;44.860;10.066;2023-06-14T17:22:29;24.50;99.90
28532;DHT22;15738;44.860;10.066;2023-06-14T17:25:15;24.50;99.90
28532;DHT22;15738;44.860;10.066;2023-06-14T17:28:00;23.40;99.90
28532;DHT22;15738;44.860;10.066;2023-06-14T17:30:46;24.50;99.90